»·PEaware :: DAL1733 KLAS-KLAX

DAL1733 :: KLAS-KLAX

FLIGHT INFORMATION

Flight Status: Arrived
Operator:
Delta Air Lines
More flights by this operator :: More flights under this callsign
Pilot: Andrew C. (32327)
Aircraft: BOEING 737-900
(B739)
More flights by this aircraft type
Origin: KLAS McCarran Intl
United States
Destination: KLAX Los Angeles Intl
United States
More flights between these airports :: More routes between these airports
Route: BOACH8 RIKII SHTNR ANJLL4
File this flight plan on PilotEdge
Remarks:
Altitude:
(Current/Filed)
32,000ft
Speed:
(Current/Filed)
525kts
Departed: 22-Nov-20 08:23 AM
Arrived: 22-Nov-20 09:08 AM
Distance/Time
Traveled:
205nm/0:45
Distance/Time
To Go:
Arrived

Flight Plot

Page will automatically refresh every two minutes.

Flight plan parsing failed; only flown route is shown


Map Options




Map Legend


Flown Route
Filed Route
Departure Airport
Arrival Airport
Navaid (VOR, NDB)
Fix

Horizontal Profiles

Position Reports

Time Latitude Longitude Heading Altitude Ground
Speed
22-Nov-20 08:01 36.079879 -115.139594 352 2186ft 0kts
22-Nov-20 08:02 36.079879 -115.139594 352 2186ft 0kts
22-Nov-20 08:03 36.079879 -115.139594 352 2186ft 0kts
22-Nov-20 08:05 36.079879 -115.139594 352 2186ft 0kts
22-Nov-20 08:05 36.079879 -115.139594 352 2186ft 0kts
22-Nov-20 08:06 36.079879 -115.139594 352 2186ft 0kts
22-Nov-20 08:07 36.079879 -115.139594 352 2186ft 0kts
22-Nov-20 08:08 36.079879 -115.139594 352 2186ft 0kts
22-Nov-20 08:09 36.079879 -115.139594 352 2186ft 0kts
22-Nov-20 08:10 36.079879 -115.139594 352 2186ft 0kts
22-Nov-20 08:11 36.079879 -115.139594 352 2186ft 0kts
22-Nov-20 08:12 36.079878 -115.139594 352 2186ft 0kts
22-Nov-20 08:13 36.079441 -115.139347 301 2186ft 2kts
22-Nov-20 08:14 36.079467 -115.138736 229 2186ft 1kts
22-Nov-20 08:15 36.079502 -115.138689 228 2186ft 0kts
22-Nov-20 08:16 36.079489 -115.138707 228 2186ft 0kts
22-Nov-20 08:17 36.079322 -115.138936 227 2186ft 0kts
22-Nov-20 08:18 36.078371 -115.139139 112 2186ft 10kts
22-Nov-20 08:19 36.077569 -115.134934 91 2186ft 25kts
22-Nov-20 08:20 36.077602 -115.126689 90 2186ft 22kts
22-Nov-20 08:21 36.077525 -115.121498 118 2186ft 9kts
22-Nov-20 08:22 36.076409 -115.131244 269 2186ft 130kts
22-Nov-20 08:23 36.078068 -115.192677 272 4368ft 188kts
22-Nov-20 08:24 36.064693 -115.256528 211 5999ft 235kts
22-Nov-20 08:25 35.996350 -115.289953 199 7158ft 275kts
22-Nov-20 08:26 35.920481 -115.307780 185 9850ft 282kts
22-Nov-20 08:27 35.836989 -115.312917 178 12225ft 318kts
22-Nov-20 08:28 35.747717 -115.302590 179 14988ft 330kts
22-Nov-20 08:29 35.663013 -115.295093 187 17356ft 335kts
22-Nov-20 08:30 35.582333 -115.298507 188 19351ft 344kts
22-Nov-20 08:31 35.488741 -115.317665 210 21453ft 342kts
22-Nov-20 08:32 35.405425 -115.374562 216 23438ft 347kts
22-Nov-20 08:33 35.321763 -115.435424 216 25298ft 354kts
22-Nov-20 08:34 35.236180 -115.497442 217 27022ft 360kts
22-Nov-20 08:35 35.149710 -115.559956 217 28599ft 365kts
22-Nov-20 08:36 35.075289 -115.640892 231 29990ft 360kts
22-Nov-20 08:37 35.005768 -115.729914 230 31515ft 362kts
22-Nov-20 08:38 34.935440 -115.819639 230 32119ft 376kts
22-Nov-20 08:39 34.863505 -115.911052 230 32124ft 372kts
22-Nov-20 08:40 34.791604 -116.002244 230 32140ft 373kts
22-Nov-20 08:41 34.720008 -116.093138 230 32173ft 373kts
22-Nov-20 08:42 34.648533 -116.184120 230 32191ft 373kts
22-Nov-20 08:43 34.577013 -116.274920 230 32189ft 374kts
22-Nov-20 08:44 34.505099 -116.365960 230 32187ft 373kts
22-Nov-20 08:45 34.433702 -116.456240 232 32183ft 371kts
22-Nov-20 08:46 34.381600 -116.562545 245 32183ft 367kts
22-Nov-20 08:47 34.335516 -116.674714 244 30282ft 367kts
22-Nov-20 08:48 34.292092 -116.782485 244 30076ft 361kts
22-Nov-20 08:49 34.253787 -116.877591 245 27434ft 366kts
22-Nov-20 08:50 34.209973 -116.988229 249 24246ft 363kts
22-Nov-20 08:51 34.180174 -117.097670 252 24084ft 342kts
22-Nov-20 08:52 34.150961 -117.204765 251 21644ft 346kts
22-Nov-20 08:53 34.120175 -117.316605 251 18425ft 353kts
22-Nov-20 08:54 34.091352 -117.425617 253 15464ft 330kts
22-Nov-20 08:55 34.068328 -117.526500 257 14004ft 301kts
22-Nov-20 08:56 34.051800 -117.625647 257 13159ft 300kts
22-Nov-20 08:57 34.034574 -117.727208 257 10791ft 308kts
22-Nov-20 08:58 34.018723 -117.820358 257 9687ft 265kts
22-Nov-20 08:59 34.003452 -117.909591 257 7661ft 282kts
22-Nov-20 09:00 33.987118 -118.004713 257 5490ft 290kts
22-Nov-20 09:01 33.971886 -118.092881 258 4364ft 242kts
22-Nov-20 09:02 33.959768 -118.162593 258 3570ft 188kts
22-Nov-20 09:03 33.953663 -118.222767 263 2798ft 176kts
22-Nov-20 09:04 33.948068 -118.277886 263 1866ft 162kts
22-Nov-20 09:05 33.942685 -118.330724 263 986ft 154kts
22-Nov-20 09:06 33.937430 -118.382152 263 163ft 155kts
22-Nov-20 09:07 33.935979 -118.402909 289 119ft 7kts
22-Nov-20 09:08 33.935995 -118.402966 289 119ft 0kts
22-Nov-20 09:09 33.936151 -118.405474 262 123ft 15kts
22-Nov-20 09:10 33.938256 -118.409206 354 126ft 14kts

Navigation Log

Ident Type
Flight plan parsing failed, navigation log unavailable